KAFJ

Washington County Airport

Washington, Pennsylvania, USA
METAR KAFJ 181456Z AUTO 31009KT 10SM CLR 06/M02 A3052 RMK AO2 SLP341 T00561022 51011
Observed Flight Rules
Oct-18 @ 14:56 UTC (an hour ago) Visual Flight Rules
Wind Visibility Clouds
310° at 9 knots 10 miles
  • Clear skies
Temperatures Readings
Current 6°C / 43°F
Dewpoint -2°C / 28°F
Humidity 57%
Altimeter 30.52" Hg
Pressure 1034.1 hPa
Elevation 361
METAR KAFJ 181456Z AUTO 31009KT 10SM CLR 06/M02 A3052 RMK AO2 SLP341 T00561022 51011
Observed Flight Rules
Oct-18 @ 14:56 UTC
(an hour ago)
VFR
Wind Visibility
310° at 9 knots 10 miles
Clouds
  • Clear skies
Temperature Dewpoint
6°C / 43°F -2°C / 28°F
Humidity Altimeter Pressure
57% 30.52" Hg 1034.1 hPa